Bowling Green, Ohio
Current Conditions -  °F | °C
As of 7:53 AM on Monday 20 Oct 2014 (Local Time) from KTDZ Reporting Station
Overcast Overcast  
Wind Chill: 45°   Ceiling: 8500
Heat Index: 49°   Visibility: 10mi
Dew Point: 42°   Wind: 10mph
Humidity: 77%   Direction: 210°SSW
Pressure: 29.9"   Gusts: NA
Location:  41.38°N, 83.65°W
Report Text: KTDZ 201153Z AUTO 21009KT 10SM FEW070 OVC085 09/06 A2990 RMK AO2 RAB35E45 SLP127 P0000 60000 T00940056 10094 20083 56014 TSNO
Loading
Personal Weather Stations






























Interactive Weather Map
Tropical Storm Tracking
New forecast layout! Learn more

10-Day Weather Forecast

Advertisements
Track Severe Weather on mobile